Time;durP1;ratioP1;P1;durP2;ratioP2;P2;SDS_P1;SDS_P2;PMS_P1;PMS_P2;Temp;Humidity;BMP_temperature;BMP_pressure;BME280_temperature;BME280_humidity;BME280_pressure;Samples;Min_cycle;Max_cycle;Signal;HPM_P1;HPM_P2
2024/01/14 00:02:05;;;;;;;;;;;11.50;43.60;;;11.60;46.12;100488.81;5071657;28;20307;-36
2024/01/14 00:04:32;;;;;;;;;;;11.50;43.60;;;11.62;46.52;100507.47;5072165;28;20312;-36
2024/01/14 00:07:00;;;;;;;;;;;11.50;43.60;;;11.64;46.12;100501.91;5072101;28;19935;-36
2024/01/14 00:09:30;;;;;;;;;;;11.50;43.50;;;11.64;46.59;100496.00;5071858;28;19924;-35
2024/01/14 00:11:58;;;;;;;;;;;11.50;43.50;;;11.63;46.94;100489.22;5063773;28;20011;-36
2024/01/14 00:14:26;;;;;;;;;;;11.50;43.50;;;11.64;46.73;100480.94;5072078;28;19925;-36
2024/01/14 00:16:54;;;;;;;;;;;11.50;43.50;;;11.66;46.61;100474.50;5072510;28;19977;-35
2024/01/14 00:19:22;;;;;;;;;;;11.50;43.50;;;11.67;46.17;100486.34;5071859;28;20019;-35
2024/01/14 00:21:50;;;;;;;;;;;11.50;43.50;;;11.64;46.39;100480.94;5071849;28;20383;-35
2024/01/14 00:24:18;;;;;;;;;;;11.50;43.50;;;11.64;46.53;100475.94;5072135;28;20007;-35
2024/01/14 00:26:47;;;;;;;;;;;11.50;43.50;;;11.66;46.29;100469.50;5072307;28;19928;-35
2024/01/14 00:29:15;;;;;;;;;;;11.50;43.50;;;11.66;46.30;100480.44;5072167;28;20296;-35
2024/01/14 00:31:43;;;;;;;;;;;11.50;43.50;;;11.66;46.31;100475.41;5071271;28;19950;-35
2024/01/14 00:34:11;;;;;;;;;;;11.50;43.60;;;11.64;46.40;100475.94;5072333;28;20343;-36
2024/01/14 00:36:40;;;;;;;;;;;11.50;43.50;;;11.65;46.90;100473.63;5072001;28;20372;-36
2024/01/14 00:39:08;;;;;;;;;;;11.50;43.50;;;11.66;46.38;100460.34;5072234;28;19925;-36
2024/01/14 00:41:36;;;;;;;;;;;11.50;43.50;;;11.67;46.20;100461.25;5071263;28;20191;-36
2024/01/14 00:44:05;;;;;;;;;;;11.50;43.50;;;11.63;46.71;100451.56;5072324;28;19931;-37
2024/01/14 00:46:33;;;;;;;;;;;11.40;43.40;;;11.66;46.27;100464.47;5072178;28;19928;-36
2024/01/14 00:49:01;;;;;;;;;;;11.50;43.50;;;11.66;46.40;100449.41;5063601;28;19982;-36
2024/01/14 00:51:29;;;;;;;;;;;11.50;43.50;;;11.68;46.85;100437.97;5071455;28;19964;-36
2024/01/14 00:53:57;;;;;;;;;;;11.50;43.50;;;11.65;46.41;100437.56;5072035;28;19929;-36
2024/01/14 00:56:25;;;;;;;;;;;11.50;43.40;;;11.64;46.51;100435.78;5072395;28;19925;-37
2024/01/14 00:58:53;;;;;;;;;;;11.50;43.50;;;11.65;46.67;100433.47;5073464;28;20035;-36
2024/01/14 01:01:22;;;;;;;;;;;11.50;43.50;;;11.65;46.82;100427.53;5074829;28;19925;-35
2024/01/14 01:03:50;;;;;;;;;;;11.50;43.50;;;11.65;46.18;100427.53;5075899;28;19936;-35
2024/01/14 01:06:18;;;;;;;;;;;11.50;43.50;;;11.62;46.59;100417.16;5075300;28;19986;-35
2024/01/14 01:08:46;;;;;;;;;;;11.50;43.50;;;11.64;46.11;100410.69;5075788;28;19947;-37
2024/01/14 01:11:16;;;;;;;;;;;11.50;43.50;;;11.65;46.57;100418.41;5074920;28;20403;-36
2024/01/14 01:13:43;;;;;;;;;;;11.50;43.50;;;11.66;46.19;100424.31;5075067;28;19928;-35
2024/01/14 01:16:11;;;;;;;;;;;11.50;43.40;;;11.64;46.44;100415.69;5074899;28;19935;-36
2024/01/14 01:18:40;;;;;;;;;;;11.50;43.50;;;11.65;46.46;100417.50;5075408;28;20295;-36
2024/01/14 01:21:09;;;;;;;;;;;11.50;43.50;;;11.66;46.45;100419.31;5074113;28;19974;-35
2024/01/14 01:23:37;;;;;;;;;;;11.50;43.50;;;11.66;46.78;100419.31;5074749;28;19929;-36
2024/01/14 01:26:05;;;;;;;;;;;11.50;43.50;;;11.66;46.00;100419.31;5074878;28;19931;-35
2024/01/14 01:28:33;;;;;;;;;;;11.50;43.50;;;11.64;46.14;100415.69;5074652;28;19946;-36
2024/01/14 01:31:01;;;;;;;;;;;11.50;43.50;;;11.65;46.33;100417.50;5065786;28;20291;-35
2024/01/14 01:33:29;;;;;;;;;;;11.50;43.50;;;11.68;46.23;100416.28;5075075;28;19925;-36
2024/01/14 01:35:59;;;;;;;;;;;11.50;43.40;;;11.70;46.68;100418.94;5074475;28;19951;-36
2024/01/14 01:38:27;;;;;;;;;;;11.50;43.40;;;11.67;46.50;100416.09;5074588;28;19928;-35
2024/01/14 01:40:54;;;;;;;;;;;11.50;43.40;;;11.66;46.61;100419.31;5065141;28;19925;-35
2024/01/14 01:43:22;;;;;;;;;;;11.50;43.50;;;11.68;46.30;100408.75;5074468;28;19928;-35
2024/01/14 01:45:50;;;;;;;;;;;11.50;43.40;;;11.69;46.12;100402.13;5074156;28;20303;-36
2024/01/14 01:48:19;;;;;;;;;;;11.50;43.40;;;11.68;46.63;100397.81;5074646;28;20353;-36
2024/01/14 01:50:47;;;;;;;;;;;11.50;43.40;;;11.68;45.98;100397.81;5073663;28;19925;-36
2024/01/14 01:53:17;;;;;;;;;;;11.50;43.40;;;11.66;46.38;100399.22;5074502;28;19993;-36
2024/01/14 01:55:45;;;;;;;;;;;11.50;43.40;;;11.71;46.46;100408.19;5074183;28;20358;-36
2024/01/14 01:58:13;;;;;;;;;;;11.60;43.50;;;11.71;45.87;100398.16;5074191;28;20346;-36
2024/01/14 02:00:41;;;;;;;;;;;11.60;43.40;;;11.70;46.16;100406.41;5073429;28;20341;-36
2024/01/14 02:03:09;;;;;;;;;;;11.50;43.30;;;11.72;46.10;100394.03;5074246;28;19924;-35
2024/01/14 02:05:39;;;;;;;;;;;11.50;43.40;;;11.71;46.24;100403.19;5073847;28;19925;-35
2024/01/14 02:08:08;;;;;;;;;;;11.60;43.50;;;11.72;46.79;100392.44;5066177;28;19968;-35
2024/01/14 02:10:37;;;;;;;;;;;11.60;43.40;;;11.71;46.12;100393.16;5072671;28;19937;-35
2024/01/14 02:13:05;;;;;;;;;;;11.60;43.40;;;11.67;46.25;100385.97;5073732;28;20015;-36
2024/01/14 02:15:33;;;;;;;;;;;11.60;43.50;;;11.70;46.33;100388.84;5073838;28;19974;-36
2024/01/14 02:18:01;;;;;;;;;;;11.50;43.40;;;11.71;46.32;100388.13;5073632;28;20402;-36
2024/01/14 02:20:30;;;;;;;;;;;11.60;43.50;;;11.70;46.77;100381.31;5072978;28;19924;-36
2024/01/14 02:22:58;;;;;;;;;;;11.60;43.50;;;11.68;46.54;100377.72;5073561;28;20447;-35
2024/01/14 02:25:27;;;;;;;;;;;11.50;43.40;;;11.66;45.85;100364.09;5073575;28;20403;-35
2024/01/14 02:27:55;;;;;;;;;;;11.50;43.50;;;11.69;46.44;100359.47;5073832;28;19934;-36
2024/01/14 02:30:23;;;;;;;;;;;11.50;43.50;;;11.69;46.06;100354.44;5073313;28;19931;-35
2024/01/14 02:32:52;;;;;;;;;;;11.60;43.50;;;11.70;46.19;100362.13;5073346;28;19924;-35
2024/01/14 02:35:20;;;;;;;;;;;11.50;43.40;;;11.65;46.18;100357.28;5073242;28;20011;-35
2024/01/14 02:37:48;;;;;;;;;;;11.50;43.50;;;11.67;46.31;100355.84;5073207;28;20019;-35
2024/01/14 02:40:16;;;;;;;;;;;11.50;43.50;;;11.68;46.35;100352.63;5072309;28;19979;-36
2024/01/14 02:42:45;;;;;;;;;;;11.50;43.50;;;11.67;46.30;100343.31;5073249;28;20396;-35
2024/01/14 02:45:13;;;;;;;;;;;11.50;43.40;;;11.66;46.48;100344.91;5073256;28;19931;-35
2024/01/14 02:47:41;;;;;;;;;;;11.50;43.40;;;11.64;46.41;100351.34;5072876;28;19924;-35
2024/01/14 02:50:10;;;;;;;;;;;11.50;43.50;;;11.65;46.66;100352.25;5072951;28;19931;-35
2024/01/14 02:52:37;;;;;;;;;;;11.50;43.50;;;11.68;45.99;100347.63;5073307;28;20281;-35
2024/01/14 02:55:06;;;;;;;;;;;11.50;43.50;;;11.69;46.26;100344.41;5064671;28;19935;-36
2024/01/14 02:57:34;;;;;;;;;;;11.50;43.50;;;11.61;46.24;100335.03;5073374;28;20380;-36
2024/01/14 03:00:06;;;;;;;;;;;11.50;43.50;;;11.63;46.91;100333.63;5071953;28;19924;-36
2024/01/14 03:02:34;;;;;;;;;;;11.50;43.50;;;11.64;45.84;100340.41;5072750;28;20015;-36
2024/01/14 03:05:02;;;;;;;;;;;11.50;43.50;;;11.63;46.81;100333.63;5072895;28;19979;-36
2024/01/14 03:07:30;;;;;;;;;;;11.50;43.50;;;11.62;46.34;100326.81;5073030;28;20342;-35
2024/01/14 03:10:00;;;;;;;;;;;11.50;43.50;;;11.61;46.52;100325.00;5072009;28;19929;-36
2024/01/14 03:12:28;;;;;;;;;;;11.50;43.50;;;11.64;46.71;100316.22;5072655;28;20332;-35
2024/01/14 03:14:56;;;;;;;;;;;11.50;43.50;;;11.66;46.08;100313.91;5072413;28;20392;-34
2024/01/14 03:17:25;;;;;;;;;;;11.50;43.40;;;11.64;46.59;100315.31;5072838;28;19954;-35
2024/01/14 03:19:54;;;;;;;;;;;11.50;43.50;;;11.65;46.44;100322.13;5071846;28;19924;-35
2024/01/14 03:22:22;;;;;;;;;;;11.50;43.50;;;11.64;46.48;100312.81;5071787;28;20010;-36
2024/01/14 03:24:50;;;;;;;;;;;11.50;43.50;;;11.67;45.87;100320.72;5072285;28;19924;-35
2024/01/14 03:27:18;;;;;;;;;;;11.50;43.50;;;11.68;46.37;100307.47;5072609;28;20014;-35
2024/01/14 03:29:46;;;;;;;;;;;11.50;43.40;;;11.66;46.04;100313.91;5073115;28;19974;-35
2024/01/14 03:32:14;;;;;;;;;;;11.50;44.10;;;11.65;46.24;100312.09;5072483;28;19924;-35
2024/01/14 03:34:43;;;;;;;;;;;11.50;43.50;;;11.64;46.39;100305.28;5072153;28;19931;-35
2024/01/14 03:37:11;;;;;;;;;;;11.50;43.50;;;11.68;46.78;100309.97;5064523;28;20341;-35
2024/01/14 03:39:39;;;;;;;;;;;11.50;43.40;;;11.67;46.67;100300.66;5071940;28;19971;-35
2024/01/14 03:42:07;;;;;;;;;;;11.50;43.50;;;11.66;46.27;100303.88;5071195;28;19940;-35
2024/01/14 03:44:35;;;;;;;;;;;11.50;43.50;;;11.66;46.55;100293.81;5071852;28;20372;-36
2024/01/14 03:47:03;;;;;;;;;;;11.50;43.50;;;11.68;46.07;100294.91;5072002;28;20014;-36
2024/01/14 03:49:31;;;;;;;;;;;11.50;43.50;;;11.65;46.68;100302.06;5071764;28;20362;-35
2024/01/14 03:52:01;;;;;;;;;;;11.50;43.40;;;11.52;46.42;100273.69;5071341;28;19924;-35
2024/01/14 03:54:29;;;;;;;;;;;11.50;43.50;;;11.64;46.84;100290.22;5071653;28;19931;-35
2024/01/14 03:56:57;;;;;;;;;;;11.50;43.50;;;11.65;46.80;100292.03;5071823;28;20459;-35
2024/01/14 03:59:25;;;;;;;;;;;11.50;43.50;;;11.65;46.36;100292.03;5071742;28;20380;-35
2024/01/14 04:01:53;;;;;;;;;;;11.50;43.50;;;11.65;46.13;100297.03;5071267;28;19929;-35
2024/01/14 04:04:21;;;;;;;;;;;11.50;43.50;;;11.64;46.14;100290.22;5071837;28;19978;-35
2024/01/14 04:06:49;;;;;;;;;;;11.50;43.50;;;11.63;46.63;100284.31;5071636;28;19924;-36
2024/01/14 04:09:18;;;;;;;;;;;11.50;43.50;;;11.65;46.96;100289.50;5071775;28;19924;-35
2024/01/14 04:11:46;;;;;;;;;;;11.50;43.50;;;11.65;46.89;100282.88;5070761;28;19971;-35
2024/01/14 04:14:14;;;;;;;;;;;11.50;43.50;;;11.62;46.42;100281.63;5071630;28;20098;-35
2024/01/14 04:16:42;;;;;;;;;;;11.50;43.50;;;11.62;46.80;100280.03;5071790;28;19931;-35
2024/01/14 04:19:10;;;;;;;;;;;11.50;43.50;;;11.63;46.39;100265.88;5063479;28;19960;-35
2024/01/14 04:21:38;;;;;;;;;;;11.50;43.50;;;11.65;46.46;100276.97;5071017;28;19931;-35
2024/01/14 04:24:06;;;;;;;;;;;11.50;43.50;;;11.64;45.87;100272.66;5071758;28;20011;-35
2024/01/14 04:26:35;;;;;;;;;;;11.50;43.50;;;11.62;46.45;100272.50;5071769;28;19924;-35
2024/01/14 04:29:03;;;;;;;;;;;11.50;43.50;;;11.62;47.02;100271.59;5071501;28;20422;-35
2024/01/14 04:31:31;;;;;;;;;;;11.50;43.60;;;11.64;46.53;100270.16;5070752;28;20382;-35
2024/01/14 04:34:02;;;;;;;;;;;11.50;43.50;;;11.66;46.45;100276.25;5073062;28;20406;-35
2024/01/14 04:36:31;;;;;;;;;;;11.50;43.50;;;11.63;46.56;100268.38;5075701;28;19980;-35
2024/01/14 04:38:59;;;;;;;;;;;11.50;43.50;;;11.65;46.14;100266.94;5075330;28;19924;-35
2024/01/14 04:41:27;;;;;;;;;;;11.50;43.50;;;11.64;46.32;100270.16;5074467;28;19983;-35
2024/01/14 04:43:56;;;;;;;;;;;11.50;43.50;;;11.65;46.22;100266.94;5075232;28;19999;-35
2024/01/14 04:46:24;;;;;;;;;;;11.50;43.50;;;11.33;46.64;100204.50;5075315;28;19925;-35
2024/01/14 04:48:51;;;;;;;;;;;11.50;43.50;;;11.65;46.71;100271.94;5075060;28;19928;-35
2024/01/14 04:51:20;;;;;;;;;;;11.50;43.50;;;11.63;46.38;100258.34;5074603;28;19932;-35
2024/01/14 04:53:48;;;;;;;;;;;11.50;43.50;;;11.66;45.90;100264.63;5075198;28;20138;-35
2024/01/14 04:56:16;;;;;;;;;;;11.50;43.50;;;11.67;46.07;100263.00;5074999;28;20202;-35
2024/01/14 04:58:44;;;;;;;;;;;11.50;43.40;;;11.66;46.51;100268.72;5075003;28;19964;-35
2024/01/14 05:01:13;;;;;;;;;;;11.50;43.40;;;11.65;46.11;100266.94;5073839;28;19979;-35
2024/01/14 05:03:42;;;;;;;;;;;11.50;43.50;;;11.65;46.20;100266.94;5075600;28;19936;-35
2024/01/14 05:06:11;;;;;;;;;;;11.50;43.50;;;11.66;46.82;100264.63;5074961;28;19982;-35
2024/01/14 05:08:42;;;;;;;;;;;11.50;43.50;;;11.65;46.12;100259.41;5075380;28;19924;-35
2024/01/14 05:11:10;;;;;;;;;;;11.50;43.40;;;11.62;46.49;100252.44;5074129;28;19964;-35
2024/01/14 05:13:38;;;;;;;;;;;11.50;43.50;;;11.64;46.93;100260.09;5074749;28;19928;-35
2024/01/14 05:16:06;;;;;;;;;;;11.50;43.50;;;11.66;46.41;100254.56;5074567;28;20383;-35
2024/01/14 05:18:35;;;;;;;;;;;11.50;43.50;;;11.68;45.99;100252.25;5074971;28;19928;-35
2024/01/14 05:21:06;;;;;;;;;;;11.50;43.50;;;11.63;46.30;100243.28;5073955;28;20027;-35
2024/01/14 05:23:34;;;;;;;;;;;11.50;43.50;;;11.62;46.51;100239.88;5075077;28;19924;-35
2024/01/14 05:26:03;;;;;;;;;;;11.40;43.40;;;11.63;46.64;100239.13;5074247;28;19928;-35
2024/01/14 05:28:31;;;;;;;;;;;11.50;43.50;;;11.64;47.03;100235.03;5074664;28;20019;-35
2024/01/14 05:30:59;;;;;;;;;;;11.50;43.50;;;11.63;46.48;100233.25;5073650;28;20010;-36
2024/01/14 05:33:27;;;;;;;;;;;11.50;43.50;;;11.62;46.17;100233.97;5074568;28;19928;-35
2024/01/14 05:35:57;;;;;;;;;;;11.50;43.50;;;11.63;46.79;100223.22;5074258;28;19924;-35
2024/01/14 05:38:25;;;;;;;;;;;11.50;43.60;;;11.65;46.26;100221.75;5074379;28;19970;-35
2024/01/14 05:40:52;;;;;;;;;;;11.50;43.50;;;11.66;46.57;100216.03;5073281;28;20498;-36
2024/01/14 05:43:20;;;;;;;;;;;11.50;43.50;;;11.65;46.59;100221.75;5074400;28;19924;-36
2024/01/14 05:45:48;;;;;;;;;;;11.50;43.50;;;11.63;45.86;100215.69;5073184;28;19924;-36
2024/01/14 05:48:16;;;;;;;;;;;11.50;43.50;;;11.66;45.94;100224.47;5074289;28;20019;-36
2024/01/14 05:50:50;;;;;;;;;;;11.50;43.50;;;11.65;46.70;100227.69;5073258;28;19928;-37
2024/01/14 05:53:20;;;;;;;;;;;11.50;43.50;;;11.65;46.20;100231.78;5073819;28;19924;-36
2024/01/14 05:55:47;;;;;;;;;;;11.50;43.50;;;11.64;46.35;100230.00;5073808;28;20027;-36
2024/01/14 05:58:15;;;;;;;;;;;11.50;43.50;;;11.66;46.22;100221.06;5065615;28;20319;-35
2024/01/14 06:00:43;;;;;;;;;;;11.50;43.50;;;11.67;45.98;100221.25;5073049;28;20020;-35
2024/01/14 06:03:11;;;;;;;;;;;11.50;44.10;;;11.67;46.67;100205.28;5073669;28;19925;-35
2024/01/14 06:05:39;;;;;;;;;;;11.60;43.50;;;11.68;46.73;100217.13;5073544;28;19924;-35
2024/01/14 06:08:07;;;;;;;;;;;11.50;43.40;;;11.67;46.16;100216.22;5073285;28;20303;-36
2024/01/14 06:10:36;;;;;;;;;;;11.50;43.40;;;11.67;46.01;100210.31;5073147;28;19925;-36
2024/01/14 06:13:07;;;;;;;;;;;11.50;43.50;;;11.68;46.25;100212.09;5073640;28;19925;-36
2024/01/14 06:15:34;;;;;;;;;;;11.50;43.50;;;11.68;46.40;100212.09;5073507;28;19925;-36
2024/01/14 06:18:03;;;;;;;;;;;11.50;43.50;;;11.67;45.80;100205.28;5073264;28;20391;-36
2024/01/14 06:20:31;;;;;;;;;;;11.50;43.40;;;11.67;46.23;100207.78;5072661;28;19991;-36
2024/01/14 06:22:59;;;;;;;;;;;11.50;43.50;;;11.65;45.98;100201.69;5073325;28;19964;-36
2024/01/14 06:25:26;;;;;;;;;;;11.50;43.50;;;11.68;46.76;100207.09;5073228;28;20307;-36
2024/01/14 06:27:56;;;;;;;;;;;11.50;43.40;;;11.68;45.87;100202.06;5073216;28;19931;-36
2024/01/14 06:30:24;;;;;;;;;;;11.50;43.40;;;11.66;46.22;100203.47;5072499;28;19924;-36
2024/01/14 06:32:55;;;;;;;;;;;11.50;43.50;;;11.66;46.19;100198.47;5073142;28;20299;-35
2024/01/14 06:35:23;;;;;;;;;;;11.50;43.50;;;11.68;46.06;100190.41;5065795;28;19924;-36
2024/01/14 06:37:51;;;;;;;;;;;11.50;43.50;;;11.67;46.50;100195.25;5073271;28;19980;-36
2024/01/14 06:40:19;;;;;;;;;;;11.50;43.40;;;11.65;45.83;100181.59;5064113;28;20342;-37
2024/01/14 06:43:00;;;;;;;;;;;11.50;43.50;;;11.67;46.75;100190.22;5072873;28;19931;-36
2024/01/14 06:45:27;;;;;;;;;;;11.50;43.50;;;11.70;46.13;100183.03;5073257;28;19925;-36
2024/01/14 06:47:56;;;;;;;;;;;11.50;43.40;;;11.67;46.20;100187.72;5072923;28;19956;-36
2024/01/14 06:50:24;;;;;;;;;;;11.50;43.50;;;11.64;46.53;100184.84;5072229;28;20013;-36
2024/01/14 06:52:52;;;;;;;;;;;11.50;43.50;;;11.67;45.99;100190.22;5072772;28;19924;-36
2024/01/14 06:55:21;;;;;;;;;;;11.50;43.50;;;11.70;46.66;100180.53;5072735;28;19925;-36
2024/01/14 06:57:49;;;;;;;;;;;11.50;43.40;;;11.72;46.31;100183.22;5072345;28;19931;-36
2024/01/14 07:00:18;;;;;;;;;;;11.60;44.10;;;11.70;46.06;100185.56;5071801;28;20398;-36
2024/01/14 07:02:46;;;;;;;;;;;11.50;43.40;;;11.69;46.12;100183.78;5072613;28;19924;-36
2024/01/14 07:05:15;;;;;;;;;;;11.50;43.40;;;11.70;46.29;100183.03;5072289;28;20375;-35
2024/01/14 07:07:44;;;;;;;;;;;11.50;43.40;;;11.73;46.26;100185.94;5072563;28;19931;-36
2024/01/14 07:10:12;;;;;;;;;;;11.60;43.50;;;11.69;46.10;100178.78;5071492;28;19978;-36
2024/01/14 07:12:40;;;;;;;;;;;11.60;43.50;;;11.71;46.95;100182.34;5072639;28;19930;-36
2024/01/14 07:15:08;;;;;;;;;;;11.50;43.40;;;11.75;46.74;100189.56;5072317;28;19924;-35
2024/01/14 07:17:37;;;;;;;;;;;11.60;43.50;;;11.76;46.69;100178.78;5072472;28;19947;-36
2024/01/14 07:20:23;;;;;;;;;;;11.60;43.40;;;11.77;45.60;100178.06;5063910;28;19924;-37
2024/01/14 07:22:51;;;;;;;;;;;11.60;43.30;;;11.75;46.29;100169.47;5071931;28;19928;-36
2024/01/14 07:25:19;;;;;;;;;;;11.60;43.40;;;11.76;46.43;100170.38;5072298;28;20019;-35
2024/01/14 07:27:47;;;;;;;;;;;11.60;43.40;;;11.76;46.50;100171.25;5072404;28;20029;-36
2024/01/14 07:30:18;;;;;;;;;;;11.60;43.40;;;11.79;46.21;100169.13;5071518;28;19958;-36
2024/01/14 07:32:48;;;;;;;;;;;11.60;43.30;;;11.77;46.07;100173.03;5072189;28;19924;-36
2024/01/14 07:35:16;;;;;;;;;;;11.60;43.30;;;11.78;46.36;100174.84;5071677;28;20307;-36
2024/01/14 07:37:44;;;;;;;;;;;11.60;43.30;;;11.78;45.75;100174.84;5072302;28;19928;-35
2024/01/14 07:40:12;;;;;;;;;;;11.60;43.30;;;11.82;45.93;100173.59;5071095;28;19935;-36
2024/01/14 07:42:40;;;;;;;;;;;11.70;43.40;;;11.79;46.16;100166.59;5072093;28;19964;-35
2024/01/14 07:45:08;;;;;;;;;;;11.60;43.20;;;11.78;45.86;100169.81;5071754;28;19925;-36
2024/01/14 07:47:36;;;;;;;;;;;11.60;43.30;;;11.83;45.95;100171.25;5072057;28;19932;-36
2024/01/14 07:50:07;;;;;;;;;;;11.60;43.30;;;11.82;46.33;100182.03;5070852;28;19928;-36
2024/01/14 07:52:34;;;;;;;;;;;11.60;43.30;;;11.82;45.49;100182.03;5072120;28;20014;-36
2024/01/14 07:55:02;;;;;;;;;;;11.60;43.30;;;11.80;45.73;100177.53;5071507;28;20478;-36
2024/01/14 07:57:30;;;;;;;;;;;11.60;43.30;;;11.81;45.97;100175.22;5072136;28;19963;-36
2024/01/14 07:59:58;;;;;;;;;;;11.60;43.30;;;11.83;46.30;100172.88;5070955;28;20020;-36
2024/01/14 08:02:27;;;;;;;;;;;11.60;43.30;;;11.83;46.14;100173.75;5072155;28;19931;-36
2024/01/14 08:04:55;;;;;;;;;;;11.60;43.30;;;11.82;45.63;100172.00;5071806;28;19930;-35
2024/01/14 08:07:24;;;;;;;;;;;11.70;43.30;;;11.82;45.62;100166.97;5064139;28;20001;-35
2024/01/14 08:09:52;;;;;;;;;;;11.60;43.30;;;11.81;46.57;100170.19;5077990;28;19978;-35
2024/01/14 08:12:21;;;;;;;;;;;11.70;43.40;;;11.82;45.96;100164.47;5079615;28;19950;-36
2024/01/14 08:14:49;;;;;;;;;;;11.60;43.30;;;11.82;46.00;100161.97;5079464;28;20296;-36
2024/01/14 08:17:17;;;;;;;;;;;11.70;43.30;;;11.78;45.60;100159.78;5078474;28;20787;-36
2024/01/14 08:19:46;;;;;;;;;;;11.60;43.30;;;11.78;46.36;100159.78;5079012;28;19928;-35
2024/01/14 08:22:17;;;;;;;;;;;11.60;43.40;;;11.81;45.52;100169.31;5070759;28;19956;-37
2024/01/14 08:24:47;;;;;;;;;;;11.60;43.30;;;11.80;46.07;100168.41;5078523;28;20277;-36
2024/01/14 08:27:15;;;;;;;;;;;11.60;43.30;;;11.77;46.47;100168.03;5077958;28;19924;-37
2024/01/14 08:29:43;;;;;;;;;;;11.60;43.30;;;11.78;46.74;100164.81;5077943;28;19975;-36
2024/01/14 08:32:11;;;;;;;;;;;11.60;43.30;;;11.81;45.92;100166.78;5077574;28;19967;-37
2024/01/14 08:34:39;;;;;;;;;;;11.60;43.30;;;11.80;45.83;100163.38;5069896;28;19928;-35
2024/01/14 08:37:08;;;;;;;;;;;11.60;43.30;;;11.77;46.24;100165.50;5077946;28;19925;-35
2024/01/14 08:39:36;;;;;;;;;;;11.60;43.40;;;11.75;46.78;100172.00;5078355;28;19956;-35
2024/01/14 08:42:05;;;;;;;;;;;11.60;43.40;;;11.79;46.66;100171.63;5074373;28;20023;-35
2024/01/14 08:44:33;;;;;;;;;;;11.60;43.40;;;11.79;46.46;100166.59;5077648;28;20383;-35
2024/01/14 08:47:03;;;;;;;;;;;11.60;43.40;;;11.81;46.13;100170.19;5078304;28;20032;-36
2024/01/14 08:49:32;;;;;;;;;;;11.60;43.30;;;11.78;46.25;100159.78;5078722;28;20015;-35
2024/01/14 08:52:01;;;;;;;;;;;11.60;43.40;;;11.78;46.49;100158.88;5079481;28;19924;-36
2024/01/14 08:54:30;;;;;;;;;;;11.60;43.40;;;11.78;46.08;100154.75;5078350;28;19932;-35
2024/01/14 08:56:58;;;;;;;;;;;11.60;44.00;;;11.78;46.73;100154.75;5078104;28;19925;-36
2024/01/14 08:59:28;;;;;;;;;;;11.60;43.40;;;11.78;46.15;100149.75;5078243;28;19929;-36
2024/01/14 09:01:56;;;;;;;;;;;11.60;43.40;;;11.75;45.83;100153.53;5077203;28;19924;-36
2024/01/14 09:04:24;;;;;;;;;;;11.60;43.40;;;11.76;45.85;100151.16;5077566;28;20019;-37
2024/01/14 09:06:52;;;;;;;;;;;11.60;43.50;;;11.80;46.09;100152.44;5077826;28;20346;-36
2024/01/14 09:09:20;;;;;;;;;;;11.60;43.40;;;11.79;46.21;100151.53;5077621;28;19924;-36
2024/01/14 09:11:48;;;;;;;;;;;11.60;43.40;;;11.79;46.74;100145.63;5077707;28;19930;-36
2024/01/14 09:14:16;;;;;;;;;;;11.60;43.40;;;11.75;46.76;100144.38;5077733;28;19967;-37
2024/01/14 09:16:45;;;;;;;;;;;11.60;43.40;;;11.77;45.70;100147.94;5077773;28;19925;-36
2024/01/14 09:19:13;;;;;;;;;;;11.60;43.40;;;11.80;45.72;100142.41;5077203;28;19935;-36
2024/01/14 09:21:41;;;;;;;;;;;11.60;43.40;;;11.81;46.27;100154.25;5074027;28;19925;-37
2024/01/14 09:24:10;;;;;;;;;;;11.60;43.40;;;11.78;46.18;100149.75;5074490;28;19924;-37
2024/01/14 09:26:38;;;;;;;;;;;11.60;43.40;;;11.75;46.36;100139.38;5074929;28;19987;-36
2024/01/14 09:29:06;;;;;;;;;;;11.60;43.40;;;11.79;46.23;100140.59;5074365;28;20388;-36
2024/01/14 09:31:34;;;;;;;;;;;11.60;43.40;;;11.78;46.40;100136.28;5073785;28;20030;-36
2024/01/14 09:34:03;;;;;;;;;;;11.60;43.40;;;11.78;45.96;100142.22;5074017;28;20383;-36
2024/01/14 09:36:32;;;;;;;;;;;11.60;43.40;;;11.76;46.75;100140.25;5066282;28;20000;-36
2024/01/14 09:39:00;;;;;;;;;;;11.60;43.40;;;11.75;46.19;100139.38;5074464;28;19954;-36
2024/01/14 09:41:33;;;;;;;;;;;11.60;43.40;;;11.79;46.14;100139.00;5065366;28;20007;-36
2024/01/14 09:44:01;;;;;;;;;;;11.60;43.40;;;11.77;46.10;100144.53;5074003;28;20451;-36
2024/01/14 09:46:29;;;;;;;;;;;11.60;43.40;;;11.75;45.80;100139.38;5065997;28;19963;-36
2024/01/14 09:48:57;;;;;;;;;;;11.60;43.40;;;11.74;45.83;100142.59;5074225;28;19932;-36
2024/01/14 09:51:28;;;;;;;;;;;11.60;43.40;;;11.62;46.71;100116.03;5073086;28;19962;-36
2024/01/14 09:53:56;;;;;;;;;;;11.60;43.50;;;11.76;46.41;100143.63;5074033;28;19978;-36
2024/01/14 09:56:24;;;;;;;;;;;11.60;43.40;;;11.75;46.21;100139.38;5073735;28;19931;-36
2024/01/14 09:58:53;;;;;;;;;;;11.60;43.40;;;11.73;46.35;100139.84;5074067;28;20023;-36
2024/01/14 10:01:22;;;;;;;;;;;11.60;43.40;;;11.75;45.82;100139.38;5073021;28;19935;-36
2024/01/14 10:03:50;;;;;;;;;;;11.60;43.40;;;11.76;46.30;100131.09;5074186;28;19929;-37
2024/01/14 10:06:18;;;;;;;;;;;11.60;43.40;;;11.77;46.67;100132.88;5073599;28;20351;-37
2024/01/14 10:08:48;;;;;;;;;;;11.60;43.40;;;11.74;46.22;100127.53;5073768;28;19931;-36
2024/01/14 10:11:16;;;;;;;;;;;11.60;43.50;;;11.73;46.15;100115.66;5072716;28;19924;-37
2024/01/14 10:13:44;;;;;;;;;;;11.60;43.50;;;11.75;46.70;100119.28;5074568;28;20027;-37
2024/01/14 10:16:12;;;;;;;;;;;11.60;43.50;;;11.76;46.18;100113.53;5073777;28;20019;-35
2024/01/14 10:19:01;;;;;;;;;;;11.60;43.40;;;11.72;45.60;100098.81;5073728;28;19928;-36
2024/01/14 10:21:29;;;;;;;;;;;11.60;43.50;;;11.73;46.62;100105.63;5064694;28;19924;-36
2024/01/14 10:23:59;;;;;;;;;;;11.60;43.50;;;11.74;46.71;100106.56;5073391;28;19964;-35
2024/01/14 10:26:27;;;;;;;;;;;11.60;43.50;;;11.77;46.78;100092.72;5073492;28;20014;-35
2024/01/14 10:28:55;;;;;;;;;;;11.60;43.50;;;11.74;46.20;100087.38;5073611;28;19935;-35
2024/01/14 10:31:23;;;;;;;;;;;11.60;43.40;;;11.72;46.71;100093.78;5072234;28;19982;-35
2024/01/14 10:33:51;;;;;;;;;;;11.60;43.50;;;11.71;46.63;100092.00;5073370;28;19967;-35
2024/01/14 10:36:19;;;;;;;;;;;11.60;43.50;;;11.73;46.14;100085.53;5073192;28;20032;-35
2024/01/14 10:38:47;;;;;;;;;;;11.60;44.20;;;11.74;45.81;100076.44;5073098;28;19947;-36
2024/01/14 10:41:16;;;;;;;;;;;11.60;43.50;;;11.74;46.22;100087.38;5072310;28;19928;-35
2024/01/14 10:43:44;;;;;;;;;;;11.60;43.50;;;11.73;46.72;100078.00;5073117;28;20423;-35
2024/01/14 10:46:12;;;;;;;;;;;11.60;43.40;;;11.69;46.19;100068.34;5073081;28;19929;-35
2024/01/14 10:48:40;;;;;;;;;;;11.60;43.50;;;11.74;46.25;100072.31;5073063;28;20030;-35
2024/01/14 10:51:10;;;;;;;;;;;11.60;43.50;;;11.72;46.81;100068.69;5072282;28;20387;-35
2024/01/14 10:53:56;;;;;;;;;;;11.60;43.50;;;11.71;46.72;100071.91;5072923;28;19978;-35
2024/01/14 10:56:32;;;;;;;;;;;11.60;43.50;;;11.68;46.21;100054.00;5072901;28;19947;-35
2024/01/14 10:59:00;;;;;;;;;;;11.60;43.40;;;11.72;45.97;100057.75;5073051;28;20315;-35
2024/01/14 11:01:29;;;;;;;;;;;11.60;43.50;;;11.72;46.70;100058.66;5072508;28;19924;-35
2024/01/14 11:03:57;;;;;;;;;;;11.60;43.50;;;11.77;46.32;100051.69;5073338;28;19928;-36
2024/01/14 11:06:25;;;;;;;;;;;11.60;43.50;;;11.72;46.55;100042.69;5072582;28;19924;-36
2024/01/14 11:08:53;;;;;;;;;;;11.60;43.50;;;11.72;46.39;100052.72;5072930;28;20015;-36
2024/01/14 11:11:27;;;;;;;;;;;11.60;43.50;;;11.74;46.08;100047.22;5072311;28;19943;-36
2024/01/14 11:14:01;;;;;;;;;;;11.60;43.50;;;11.73;46.34;100050.41;5074694;28;19967;-36
2024/01/14 11:16:33;;;;;;;;;;;11.60;43.50;;;11.70;46.74;100045.03;5074491;28;20015;-36